Time;durP1;ratioP1;P1;durP2;ratioP2;P2;SDS_P1;SDS_P2;PMS_P1;PMS_P2;Temp;Humidity;BMP_temperature;BMP_pressure;BME280_temperature;BME280_humidity;BME280_pressure;Samples;Min_cycle;Max_cycle;Signal;HPM_P1;HPM_P2
2024/03/27 00:01:18;;;;;;;;;2.00;2.00;;;;;9.02;70.80;98161.47;5051048;28;63737;-58
2024/03/27 00:03:43;;;;;;;;;1.25;1.25;;;;;9.01;71.03;98161.56;5057139;28;48959;-57
2024/03/27 00:06:09;;;;;;;;;3.00;2.25;;;;;8.98;71.11;98152.16;5052588;28;45281;-59
2024/03/27 00:08:35;;;;;;;;;1.75;1.75;;;;;8.97;71.19;98150.47;5053014;28;47190;-58
2024/03/27 00:11:01;;;;;;;;;3.50;2.25;;;;;8.96;71.32;98141.00;5052939;28;46993;-59
2024/03/27 00:13:26;;;;;;;;;3.50;2.00;;;;;8.96;71.69;98140.13;5054468;27;45461;-59
2024/03/27 00:15:52;;;;;;;;;2.75;2.00;;;;;8.93;71.40;98136.78;5072692;28;71843;-59
2024/03/27 00:18:18;;;;;;;;;6.50;2.25;;;;;8.92;71.73;98129.06;5059503;28;45966;-59
2024/03/27 00:20:43;;;;;;;;;4.00;4.00;;;;;8.91;72.02;98133.44;5059286;28;45276;-59
2024/03/27 00:23:08;;;;;;;;;6.50;3.00;;;;;8.92;71.81;98136.88;5059306;28;47639;-58
2024/03/27 00:25:34;;;;;;;;;4.50;3.00;;;;;8.93;72.05;98118.53;5052353;28;54455;-58
2024/03/27 00:27:59;;;;;;;;;2.00;1.00;;;;;8.93;71.95;98117.69;5046896;28;74419;-59
2024/03/27 00:30:25;;;;;;;;;2.75;1.50;;;;;8.92;71.89;98109.03;5055646;28;45493;-59
2024/03/27 00:32:50;;;;;;;;;1.50;1.25;;;;;8.91;72.14;98109.13;5030449;28;55105;-59
2024/03/27 00:35:15;;;;;;;;;4.50;3.25;;;;;8.89;72.31;98119.66;5057853;28;72152;-59
2024/03/27 00:37:40;;;;;;;;;6.50;3.00;;;;;8.89;72.39;98130.09;5053122;28;46226;-59
2024/03/27 00:40:08;;;;;;;;;2.00;2.00;;;;;8.94;72.42;98135.00;5056349;28;68278;-59
2024/03/27 00:42:34;;;;;;;;;2.00;2.00;;;;;8.97;72.67;98136.59;5056904;28;45334;-58
2024/03/27 00:45:00;;;;;;;;;13.50;8.00;;;;;8.98;72.43;98141.72;5057362;28;45398;-59
2024/03/27 00:47:26;;;;;;;;;5.00;5.00;;;;;9.00;72.43;98128.59;5056308;28;46542;-57
2024/03/27 00:49:51;;;;;;;;;3.75;3.75;;;;;9.01;72.45;98125.91;5057861;28;45250;-59
2024/03/27 00:52:16;;;;;;;;;4.50;2.00;;;;;9.02;72.33;98129.34;5058162;28;69139;-60
2024/03/27 00:54:41;;;;;;;;;3.00;3.00;;;;;9.00;72.39;98123.38;5048948;28;71251;-58
2024/03/27 00:57:07;;;;;;;;;3.00;3.00;;;;;9.02;72.76;98139.75;5059157;28;61618;-59
2024/03/27 00:59:33;;;;;;;;;2.50;2.50;;;;;9.05;72.46;98129.16;5057836;28;45546;-57
2024/03/27 01:01:58;;;;;;;;;3.00;3.00;;;;;9.06;72.68;98130.81;5056351;28;45713;-58
2024/03/27 01:04:24;;;;;;;;;7.50;3.00;;;;;9.07;72.87;98128.09;5054060;28;45383;-58
2024/03/27 01:06:49;;;;;;;;;3.00;3.00;;;;;9.08;72.94;98139.38;5050102;28;66208;-58
2024/03/27 01:09:14;;;;;;;;;5.00;4.00;;;;;9.09;72.98;98125.41;5050257;28;60224;-58
2024/03/27 01:11:40;;;;;;;;;4.00;3.00;;;;;9.12;73.04;98130.44;5048728;28;58274;-59
2024/03/27 01:14:05;;;;;;;;;4.00;3.00;;;;;9.11;73.20;98140.00;5057705;28;45376;-59
2024/03/27 01:16:30;;;;;;;;;4.50;4.00;;;;;9.13;72.99;98134.69;5057992;28;47281;-58
2024/03/27 01:18:56;;;;;;;;;5.00;4.00;;;;;9.13;72.98;98137.31;5052035;28;45335;-59
2024/03/27 01:21:21;;;;;;;;;5.25;4.75;;;;;9.16;73.57;98131.06;5052179;28;45286;-60
2024/03/27 01:23:47;;;;;;;;;6.00;5.25;;;;;9.17;73.15;98132.72;5055514;28;45867;-59
2024/03/27 01:26:12;;;;;;;;;3.75;3.75;;;;;9.18;73.29;98135.25;5051875;28;46168;-60
2024/03/27 01:28:38;;;;;;;;;17.75;12.75;;;;;9.18;73.47;98148.31;5046085;28;53041;-59
2024/03/27 01:31:03;;;;;;;;;6.25;5.25;;;;;9.20;73.59;98159.47;5047458;28;45442;-60
2024/03/27 01:33:28;;;;;;;;;3.75;3.75;;;;;9.21;73.80;98161.16;5055329;28;46831;-58
2024/03/27 01:35:54;;;;;;;;;4.25;4.25;;;;;9.22;73.59;98159.38;5056371;28;75544;-59
2024/03/27 01:38:19;;;;;;;;;6.50;5.00;;;;;9.24;73.49;98155.75;5057450;28;53829;-58
2024/03/27 01:40:45;;;;;;;;;7.50;5.25;;;;;9.25;73.88;98156.59;5055707;28;45433;-59
2024/03/27 01:43:10;;;;;;;;;7.50;5.50;;;;;9.25;73.98;98146.97;5052591;28;45499;-58
2024/03/27 01:45:35;;;;;;;;;6.00;5.75;;;;;9.26;73.93;98140.84;5056254;28;73238;-58
2024/03/27 01:48:02;;;;;;;;;5.00;5.00;;;;;9.27;73.92;98149.50;5037242;28;65766;-58
2024/03/27 01:50:29;;;;;;;;;5.00;5.00;;;;;9.27;73.97;98152.94;5057757;28;45475;-59
2024/03/27 01:52:55;;;;;;;;;5.75;3.75;;;;;9.28;74.07;98145.97;5057576;28;45316;-58
2024/03/27 01:55:21;;;;;;;;;5.75;5.75;;;;;9.30;74.09;98141.47;5049402;28;74286;-59
2024/03/27 01:57:47;;;;;;;;;5.00;5.00;;;;;9.30;74.23;98144.91;5058794;28;45326;-59
2024/03/27 02:00:14;;;;;;;;;5.75;5.00;;;;;9.29;74.10;98140.63;5056024;28;45450;-58
2024/03/27 02:02:39;;;;;;;;;6.25;5.00;;;;;9.30;74.19;98137.09;5056447;28;45300;-59
2024/03/27 02:05:05;;;;;;;;;6.75;5.00;;;;;9.32;74.32;98129.16;5054103;28;45219;-58
2024/03/27 02:07:31;;;;;;;;;6.00;3.00;;;;;9.32;74.02;98118.72;5050511;28;45838;-58
2024/03/27 02:09:56;;;;;;;;;9.25;5.00;;;;;9.32;74.64;98116.94;5033461;28;67164;-58
2024/03/27 02:12:22;;;;;;;;;5.00;5.00;;;;;9.33;74.42;98107.38;5057729;28;45391;-58
2024/03/27 02:14:47;;;;;;;;;6.00;4.00;;;;;9.35;74.37;98105.47;5038645;28;74897;-57
2024/03/27 02:17:12;;;;;;;;;7.75;5.00;;;;;9.32;74.54;98101.28;5058145;27;74532;-57
2024/03/27 02:19:38;;;;;;;;;4.25;4.25;;;;;9.31;74.87;98104.84;5052808;28;45316;-58
2024/03/27 02:22:03;;;;;;;;;4.00;3.50;;;;;9.32;74.56;98103.06;5054771;28;69822;-58
2024/03/27 02:24:34;;;;;;;;;5.00;4.25;;;;;9.34;74.37;98105.59;5056462;28;75333;-59
2024/03/27 02:26:59;;;;;;;;;10.25;6.75;;;;;9.31;74.57;98085.72;5061425;28;45300;-60
2024/03/27 02:29:25;;;;;;;;;6.00;6.00;;;;;9.31;74.89;98090.94;5062078;28;70551;-59
2024/03/27 02:31:50;;;;;;;;;6.75;6.00;;;;;9.31;74.72;98085.72;5058308;28;71339;-59
2024/03/27 02:34:15;;;;;;;;;5.00;5.00;;;;;9.31;74.67;98076.13;5053856;28;47133;-59
2024/03/27 02:36:41;;;;;;;;;6.50;5.50;;;;;9.31;75.07;98059.63;5056993;28;69574;-59
2024/03/27 02:39:07;;;;;;;;;9.50;6.00;;;;;9.34;74.76;98072.47;5054406;28;68627;-58
2024/03/27 02:41:33;;;;;;;;;10.00;9.00;;;;;9.31;75.00;98072.66;5051066;28;45547;-58
2024/03/27 02:43:58;;;;;;;;;5.00;3.00;;;;;9.31;74.92;98083.09;5058248;27;46338;-60
2024/03/27 02:46:23;;;;;;;;;7.00;5.50;;;;;9.30;74.97;98082.28;5060098;28;64649;-56
2024/03/27 02:48:49;;;;;;;;;9.75;5.25;;;;;9.31;74.95;98093.53;5043016;28;68363;-59
2024/03/27 02:51:14;;;;;;;;;9.00;6.00;;;;;9.29;74.94;98083.19;5057524;28;73986;-59
2024/03/27 02:53:39;;;;;;;;;9.00;6.00;;;;;9.34;74.96;98092.53;5058924;28;47332;-59
2024/03/27 02:56:05;;;;;;;;;5.75;5.75;;;;;9.35;74.71;98086.34;5060161;28;70520;-59
2024/03/27 02:58:30;;;;;;;;;6.50;6.00;;;;;9.36;74.77;98096.69;5056697;28;45444;-59
2024/03/27 03:00:55;;;;;;;;;5.25;5.25;;;;;9.35;74.67;98083.75;5045793;28;58632;-58
2024/03/27 03:03:21;;;;;;;;;8.50;7.00;;;;;9.32;74.89;98084.78;5053588;28;75265;-60
2024/03/27 03:05:46;;;;;;;;;6.75;6.75;;;;;9.34;74.87;98089.91;5052890;28;45421;-59
2024/03/27 03:08:11;;;;;;;;;9.50;6.00;;;;;9.32;74.57;98093.47;5059338;28;68128;-58
2024/03/27 03:10:37;;;;;;;;;7.25;5.75;;;;;9.36;74.69;98096.69;5054897;28;45487;-59
2024/03/27 03:13:02;;;;;;;;;4.75;4.25;;;;;9.35;74.60;98083.75;5059952;28;74693;-58
2024/03/27 03:15:28;;;;;;;;;6.00;5.00;;;;;9.34;74.75;98075.09;5060256;27;45558;-58
2024/03/27 03:17:53;;;;;;;;;5.75;5.50;;;;;9.36;74.89;98080.22;5061779;28;45284;-57
2024/03/27 03:20:18;;;;;;;;;6.00;4.75;;;;;9.35;74.32;98068.09;5055417;28;72302;-58
2024/03/27 03:22:44;;;;;;;;;11.25;5.25;;;;;9.32;74.64;98056.91;5055423;28;67356;-58
2024/03/27 03:25:10;;;;;;;;;6.75;5.50;;;;;9.35;74.71;98061.13;5049574;28;54746;-59
2024/03/27 03:27:35;;;;;;;;;9.50;6.25;;;;;9.35;74.65;98061.13;5055686;28;45659;-58
2024/03/27 03:30:03;;;;;;;;;5.50;5.50;;;;;9.34;74.31;98064.66;5060555;28;45476;-58
2024/03/27 03:32:28;;;;;;;;;6.00;6.00;;;;;9.30;74.50;98065.78;5055269;28;46050;-59
2024/03/27 03:34:54;;;;;;;;;8.75;4.25;;;;;9.26;74.26;98049.50;5060509;28;45445;-59
2024/03/27 03:37:19;;;;;;;;;6.00;5.00;;;;;9.24;74.21;98043.53;5059269;28;45467;-60
2024/03/27 03:39:45;;;;;;;;;6.25;4.00;;;;;9.22;74.20;98039.34;5059518;27;59255;-59
2024/03/27 03:42:10;;;;;;;;;4.50;4.50;;;;;9.20;74.39;98036.84;5054464;28;46134;-59
2024/03/27 03:44:35;;;;;;;;;6.75;4.25;;;;;9.20;74.54;98041.22;5045920;28;71981;-58
2024/03/27 03:47:01;;;;;;;;;5.00;4.00;;;;;9.21;74.71;98035.91;5059015;28;69480;-59
2024/03/27 03:49:26;;;;;;;;;4.75;4.25;;;;;9.22;74.43;98034.13;5055385;28;46406;-59
2024/03/27 03:51:52;;;;;;;;;9.00;5.75;;;;;9.22;74.48;98032.34;5053740;28;62371;-58
2024/03/27 03:54:17;;;;;;;;;5.75;5.00;;;;;9.24;74.49;98038.34;5052416;28;55551;-58
2024/03/27 03:56:42;;;;;;;;;5.25;4.00;;;;;9.25;74.51;98026.94;5055457;28;59356;-59
2024/03/27 03:59:08;;;;;;;;;9.00;4.75;;;;;9.26;74.38;98012.97;5060122;28;64047;-59
2024/03/27 04:01:33;;;;;;;;;5.75;3.00;;;;;9.24;74.22;98008.75;5060017;28;46656;-59
2024/03/27 04:03:58;;;;;;;;;5.00;3.00;;;;;9.20;74.03;98008.13;5060448;28;45304;-58
2024/03/27 04:06:26;;;;;;;;;3.00;3.00;;;;;9.19;74.18;98021.28;5052013;28;67236;-59
2024/03/27 04:08:51;;;;;;;;;0.00;0.00;;;;;9.17;74.39;98029.22;5053994;28;45460;-58
2024/03/27 04:11:17;;;;;;;;;4.00;4.00;;;;;9.20;74.59;98033.41;5052280;28;46169;-58
2024/03/27 04:13:42;;;;;;;;;7.25;4.75;;;;;9.21;74.61;98043.75;5056129;28;45305;-59
2024/03/27 04:16:09;;;;;;;;;5.00;4.50;;;;;9.23;74.53;98049.69;5058861;28;45343;-58
2024/03/27 04:18:35;;;;;;;;;6.50;4.00;;;;;9.22;74.27;98042.78;5059408;27;45472;-59
2024/03/27 04:21:04;;;;;;;;;4.75;3.75;;;;;9.26;74.62;98049.50;5057901;28;47593;-59
2024/03/27 04:23:29;;;;;;;;;6.00;5.00;;;;;9.28;74.46;98042.41;5058415;28;45814;-59
2024/03/27 04:25:54;;;;;;;;;4.00;4.00;;;;;9.31;74.71;98036.13;5057011;28;63388;-59
2024/03/27 04:28:20;;;;;;;;;6.00;6.00;;;;;9.34;74.59;98033.34;5058039;28;72642;-59
2024/03/27 04:30:45;;;;;;;;;4.50;4.00;;;;;9.30;74.36;98024.03;5054506;28;47232;-57
2024/03/27 04:33:12;;;;;;;;;4.50;4.50;;;;;9.37;74.30;98027.09;5058305;28;46273;-58
2024/03/27 04:35:37;;;;;;;;;5.00;4.25;;;;;9.39;74.60;98033.03;5050857;28;70175;-58
2024/03/27 04:38:03;;;;;;;;;5.50;5.00;;;;;9.41;74.25;98039.00;5056881;28;50656;-60
2024/03/27 04:40:28;;;;;;;;;3.75;3.00;;;;;9.39;74.46;98028.66;5059280;28;46303;-58
2024/03/27 04:42:53;;;;;;;;;4.00;4.00;;;;;9.40;74.34;98026.88;5057622;28;67653;-58
2024/03/27 04:45:19;;;;;;;;;2.25;2.25;;;;;9.36;74.20;98018.41;5057767;28;69155;-59
2024/03/27 04:47:44;;;;;;;;;3.50;3.50;;;;;9.39;74.36;98015.59;5054872;28;45500;-58
2024/03/27 04:50:10;;;;;;;;;4.25;2.75;;;;;9.39;74.31;98023.44;5055063;28;52834;-59
2024/03/27 04:52:35;;;;;;;;;4.00;4.00;;;;;9.36;74.26;98018.41;5056338;28;45301;-60
2024/03/27 04:55:03;;;;;;;;;4.00;3.00;;;;;9.40;74.45;98027.72;5055751;28;45460;-59
2024/03/27 04:57:29;;;;;;;;;4.00;3.25;;;;;9.42;74.14;98036.28;5054491;28;45391;-59
2024/03/27 04:59:55;;;;;;;;;5.50;3.00;;;;;9.43;74.31;98042.34;5055982;28;46205;-58
2024/03/27 05:02:20;;;;;;;;;7.00;4.50;;;;;9.43;74.06;98032.72;5054667;28;47096;-59
2024/03/27 05:04:46;;;;;;;;;4.50;3.00;;;;;9.44;73.84;98033.59;5053980;28;68038;-57
2024/03/27 05:07:12;;;;;;;;;3.50;3.00;;;;;9.42;73.84;98032.81;5057143;28;45435;-56
2024/03/27 05:09:37;;;;;;;;;3.50;3.00;;;;;9.39;73.85;98025.22;5051938;28;45230;-57
2024/03/27 05:12:03;;;;;;;;;3.00;3.00;;;;;9.41;74.18;98029.38;5049636;28;45579;-58
2024/03/27 05:14:29;;;;;;;;;5.00;4.25;;;;;9.42;73.98;98019.75;5054795;28;45354;-59
2024/03/27 05:16:54;;;;;;;;;3.75;3.75;;;;;9.42;74.22;98028.47;5059326;28;45382;-59
2024/03/27 05:19:20;;;;;;;;;6.50;4.75;;;;;9.47;74.31;98041.19;5057298;28;45473;-58
2024/03/27 05:21:45;;;;;;;;;5.75;4.25;;;;;9.49;73.78;98042.78;5049379;28;46027;-58
2024/03/27 05:24:10;;;;;;;;;3.00;3.00;;;;;9.49;73.89;98047.13;5046842;28;66268;-57
2024/03/27 05:26:36;;;;;;;;;3.00;3.00;;;;;9.49;73.79;98041.91;5057006;28;51687;-58
2024/03/27 05:29:01;;;;;;;;;2.25;2.25;;;;;9.45;73.81;98041.28;5042410;28;69528;-58
2024/03/27 05:31:27;;;;;;;;;7.50;4.00;;;;;9.47;73.72;98036.81;5043475;28;45471;-58
2024/03/27 05:33:53;;;;;;;;;4.00;4.00;;;;;9.49;73.79;98034.09;5053411;28;56440;-58
2024/03/27 05:36:18;;;;;;;;;4.00;4.00;;;;;9.51;73.96;98045.28;5049802;28;45461;-59
2024/03/27 05:38:43;;;;;;;;;5.00;5.00;;;;;9.52;73.89;98048.72;5052804;28;76222;-58
2024/03/27 05:41:09;;;;;;;;;4.00;3.00;;;;;9.54;73.86;98057.28;5053525;28;72964;-58
2024/03/27 05:43:35;;;;;;;;;5.75;4.75;;;;;9.48;73.54;98040.25;5054207;28;45360;-59
2024/03/27 05:46:00;;;;;;;;;4.50;3.25;;;;;9.51;73.46;98050.50;5058603;28;45553;-58
2024/03/27 05:48:26;;;;;;;;;3.00;3.00;;;;;9.50;74.02;98067.09;5056584;28;45366;-58
2024/03/27 05:50:52;;;;;;;;;6.75;3.75;;;;;9.52;74.21;98060.00;5061443;28;66442;-60
2024/03/27 05:53:17;;;;;;;;;4.25;3.75;;;;;9.53;74.01;98058.25;5036313;28;45288;-58
2024/03/27 05:55:42;;;;;;;;;4.25;3.75;;;;;9.54;74.40;98058.13;5042142;28;45758;-57
2024/03/27 05:58:08;;;;;;;;;4.75;4.00;;;;;9.55;74.33;98058.97;5060568;28;63802;-58
2024/03/27 06:00:33;;;;;;;;;10.00;4.00;;;;;9.48;74.04;98054.16;5061713;28;45429;-59
2024/03/27 06:02:59;;;;;;;;;3.00;3.00;;;;;9.57;73.73;98072.75;5059796;28;45370;-57
2024/03/27 06:05:24;;;;;;;;;6.50;3.00;;;;;9.54;73.47;98071.16;5058682;28;55129;-58
2024/03/27 06:07:50;;;;;;;;;4.75;3.75;;;;;9.53;73.54;98076.53;5060718;28;45495;-59
2024/03/27 06:10:15;;;;;;;;;2.75;2.00;;;;;9.52;73.52;98075.66;5061525;28;45425;-57
2024/03/27 06:12:40;;;;;;;;;5.25;4.00;;;;;9.52;73.12;98080.88;5062054;28;64554;-56
2024/03/27 06:15:06;;;;;;;;;4.25;4.00;;;;;9.50;72.82;98085.38;5060754;28;72123;-58
2024/03/27 06:17:32;;;;;;;;;4.75;3.00;;;;;9.48;73.11;98082.84;5057144;28;45356;-58
2024/03/27 06:19:57;;;;;;;;;4.25;3.00;;;;;9.50;72.99;98082.75;5055340;27;73715;-59
2024/03/27 06:22:22;;;;;;;;;5.25;3.50;;;;;9.52;72.87;98077.44;5057731;28;50788;-58
2024/03/27 06:24:49;;;;;;;;;6.25;2.00;;;;;9.53;72.58;98084.34;5059269;28;70454;-58
2024/03/27 06:27:14;;;;;;;;;2.75;2.75;;;;;9.56;72.88;98076.28;5059764;28;46301;-57
2024/03/27 06:29:39;;;;;;;;;3.00;2.75;;;;;9.59;72.80;98089.16;5055710;28;56130;-58
2024/03/27 06:32:06;;;;;;;;;4.00;4.00;;;;;9.60;72.57;98089.06;5058016;28;64306;-58
2024/03/27 06:34:32;;;;;;;;;6.25;3.25;;;;;9.63;72.36;98088.88;5058041;28;45279;-59
2024/03/27 06:36:57;;;;;;;;;3.75;3.75;;;;;9.59;72.39;98083.94;5052147;28;45372;-59
2024/03/27 06:39:22;;;;;;;;;5.00;2.00;;;;;9.62;72.32;98099.41;5057427;28;73040;-58
2024/03/27 06:41:48;;;;;;;;;4.00;4.00;;;;;9.61;72.22;98102.94;5061119;28;61179;-59
2024/03/27 06:44:15;;;;;;;;;3.25;3.00;;;;;9.60;72.10;98107.34;5056124;27;58204;-59
2024/03/27 06:46:40;;;;;;;;;5.75;2.75;;;;;9.59;72.03;98108.25;5058318;28;45394;-59
2024/03/27 06:49:18;;;;;;;;;4.25;2.50;;;;;9.58;71.89;98105.75;5048233;28;45537;-58
2024/03/27 06:51:50;;;;;;;;;3.75;2.25;;;;;9.61;71.74;98105.56;5061814;28;45312;-59
2024/03/27 06:54:16;;;;;;;;;4.75;3.00;;;;;9.61;71.67;98105.56;5056619;28;45581;-59
2024/03/27 06:56:43;;;;;;;;;5.00;3.00;;;;;9.62;71.56;98099.41;5045853;28;45341;-60
2024/03/27 06:59:09;;;;;;;;;2.00;2.00;;;;;9.63;71.69;98101.06;5059729;28;45328;-58
2024/03/27 07:01:34;;;;;;;;;7.50;3.00;;;;;9.68;71.88;98109.44;5059767;28;69398;-59
2024/03/27 07:04:01;;;;;;;;;3.00;3.00;;;;;9.72;71.52;98100.50;5050985;28;68605;-58
2024/03/27 07:06:27;;;;;;;;;4.00;2.00;;;;;9.78;71.27;98091.41;5060573;27;46128;-57
2024/03/27 07:08:52;;;;;;;;;2.50;2.00;;;;;9.79;71.04;98095.66;5064436;27;45461;-55
2024/03/27 07:11:17;;;;;;;;;3.00;3.00;;;;;9.82;71.01;98098.91;5062251;28;45580;-53
2024/03/27 07:13:43;;;;;;;;;3.75;1.50;;;;;9.81;70.76;98097.25;5062881;28;70876;-59
2024/03/27 07:16:09;;;;;;;;;2.00;2.00;;;;;9.85;70.89;98101.31;5045676;28;45305;-57
2024/03/27 07:18:34;;;;;;;;;2.50;2.50;;;;;9.87;70.56;98103.84;5060637;28;73205;-57
2024/03/27 07:20:59;;;;;;;;;3.50;2.50;;;;;9.85;70.67;98097.88;5055351;27;45285;-57
2024/03/27 07:23:27;;;;;;;;;3.00;2.25;;;;;9.86;70.74;98089.09;5061011;28;45468;-55
2024/03/27 07:25:52;;;;;;;;;2.00;2.00;;;;;9.88;70.43;98093.28;5060086;28;45317;-61
2024/03/27 07:28:17;;;;;;;;;5.50;2.25;;;;;9.88;70.45;98092.47;5056742;28;45479;-55
2024/03/27 07:30:43;;;;;;;;;2.75;2.75;;;;;9.89;69.94;98102.78;5051756;28;68205;-64
2024/03/27 07:33:08;;;;;;;;;2.25;2.25;;;;;9.88;69.74;98100.31;5050210;28;73178;-60
2024/03/27 07:35:33;;;;;;;;;3.75;3.50;;;;;9.87;69.91;98107.28;5059102;28;56058;-60
2024/03/27 07:37:59;;;;;;;;;3.00;3.00;;;;;9.83;69.51;98099.78;5059058;28;48949;-59
2024/03/27 07:40:26;;;;;;;;;2.25;2.00;;;;;9.83;69.53;98111.06;5059295;28;67943;-60
2024/03/27 07:42:52;;;;;;;;;4.00;2.75;;;;;9.83;69.68;98097.16;5052487;28;67375;-58
2024/03/27 07:45:18;;;;;;;;;3.50;2.75;;;;;9.84;69.39;98086.63;5056355;28;46309;-56
2024/03/27 07:47:43;;;;;;;;;2.00;2.00;;;;;9.86;69.37;98086.47;5059725;28;62821;-57
2024/03/27 07:50:09;;;;;;;;;4.50;3.00;;;;;9.86;68.90;98086.47;5060306;28;45444;-52
2024/03/27 07:52:34;;;;;;;;;3.75;2.75;;;;;9.84;68.83;98080.53;5061385;28;45489;-51
2024/03/27 07:54:59;;;;;;;;;4.50;2.75;;;;;9.81;68.97;98073.75;5057789;28;57073;-55
2024/03/27 07:57:25;;;;;;;;;2.00;2.00;;;;;9.79;68.92;98070.41;5053381;28;58365;-56
2024/03/27 07:59:50;;;;;;;;;2.00;2.00;;;;;9.79;68.79;98067.78;5055113;28;48116;-55
2024/03/27 08:02:15;;;;;;;;;4.25;3.00;;;;;9.80;68.72;98068.63;5054025;28;45597;-56
2024/03/27 08:04:41;;;;;;;;;3.00;3.00;;;;;9.81;68.43;98071.13;5059498;28;61971;-54
2024/03/27 08:07:06;;;;;;;;;4.25;3.00;;;;;9.83;68.39;98068.44;5049313;28;66267;-57
2024/03/27 08:09:32;;;;;;;;;3.00;1.75;;;;;9.85;68.45;98059.53;5054512;28;66962;-50
2024/03/27 08:11:57;;;;;;;;;3.50;2.00;;;;;9.85;68.54;98063.94;5050199;28;45502;-53
2024/03/27 08:14:22;;;;;;;;;3.00;2.00;;;;;9.87;68.38;98067.28;5052379;28;75106;-55
2024/03/27 08:16:51;;;;;;;;;3.25;2.00;;;;;9.85;68.37;98079.59;5048248;28;73314;-54
2024/03/27 08:19:16;;;;;;;;;5.00;3.00;;;;;9.82;68.30;98091.06;5057352;28;61128;-57
2024/03/27 08:21:41;;;;;;;;;3.00;3.00;;;;;9.78;68.21;98094.84;5059154;28;72265;-57
2024/03/27 08:24:07;;;;;;;;;4.75;3.00;;;;;9.74;68.53;98105.56;5056574;28;74598;-55
2024/03/27 08:26:33;;;;;;;;;3.00;3.00;;;;;9.72;68.17;98107.47;5053637;28;57214;-52
2024/03/27 08:28:58;;;;;;;;;2.75;2.75;;;;;9.74;68.29;98100.34;5053753;28;45445;-54
2024/03/27 08:31:24;;;;;;;;;6.25;3.00;;;;;9.76;68.07;98104.56;5069628;28;66595;-54
2024/03/27 08:33:49;;;;;;;;;4.75;2.00;;;;;9.76;67.76;98112.38;5048233;28;75896;-54
2024/03/27 08:36:15;;;;;;;;;4.00;2.75;;;;;9.77;68.07;98115.84;5048736;28;45414;-54
2024/03/27 08:38:40;;;;;;;;;4.00;2.00;;;;;9.74;67.71;98113.41;5038504;28;63763;-54
2024/03/27 08:41:05;;;;;;;;;5.50;2.75;;;;;9.71;68.00;98111.84;5056881;28;68348;-55
2024/03/27 08:43:30;;;;;;;;;5.75;2.75;;;;;9.75;67.88;98115.94;5058125;28;74720;-56
2024/03/27 08:45:56;;;;;;;;;3.00;2.00;;;;;9.77;67.45;98119.28;5059067;28;73506;-55
2024/03/27 08:48:22;;;;;;;;;3.25;2.75;;;;;9.77;67.66;98116.66;5059476;28;69394;-56
2024/03/27 08:50:47;;;;;;;;;2.25;1.75;;;;;9.82;66.96;98113.75;5060531;28;45272;-56
2024/03/27 08:53:14;;;;;;;;;1.75;1.75;;;;;9.83;67.03;98110.22;5055083;28;45453;-57
2024/03/27 08:55:43;;;;;;;;;3.50;2.00;;;;;9.87;66.39;98111.69;5059424;28;45715;-54
2024/03/27 08:58:09;;;;;;;;;1.75;1.00;;;;;9.90;66.61;98114.09;5057495;28;45362;-53
2024/03/27 09:00:35;;;;;;;;;1.25;1.25;;;;;9.93;66.52;98116.47;5047407;28;45273;-55
2024/03/27 09:03:02;;;;;;;;;2.50;1.75;;;;;9.95;66.09;98124.22;5046950;28;46305;-55
2024/03/27 09:05:28;;;;;;;;;1.00;1.00;;;;;9.98;66.09;98130.09;5059343;28;45344;-57
2024/03/27 09:07:53;;;;;;;;;5.00;3.00;;;;;9.98;65.95;98121.41;5059232;28;45454;-52
2024/03/27 09:10:19;;;;;;;;;3.75;2.00;;;;;10.00;66.45;98141.25;5049061;28;45559;-54
2024/03/27 09:12:44;;;;;;;;;4.00;2.00;;;;;10.12;66.25;98141.41;5046295;28;46365;-56
2024/03/27 09:15:10;;;;;;;;;2.00;1.50;;;;;10.26;66.05;98152.59;5046297;28;45261;-54
2024/03/27 09:17:36;;;;;;;;;5.25;2.00;;;;;10.36;65.73;98157.25;5039488;28;45289;-55
2024/03/27 09:20:03;;;;;;;;;3.00;0.25;;;;;10.38;65.71;98155.38;5052657;28;45217;-56
2024/03/27 09:22:33;;;;;;;;;4.25;2.00;;;;;10.38;65.66;98161.44;5038857;28;46408;-54
2024/03/27 09:24:58;;;;;;;;;4.75;3.00;;;;;10.42;65.53;98164.66;5043803;28;45786;-56
2024/03/27 09:27:24;;;;;;;;;3.50;3.50;;;;;10.45;65.71;98162.69;5049807;28;62295;-56
2024/03/27 09:29:53;;;;;;;;;3.75;3.50;;;;;10.50;65.64;98165.00;5049520;28;45382;-55
2024/03/27 09:32:19;;;;;;;;;2.50;2.50;;;;;10.49;66.16;98163.31;5049114;28;46475;-55
2024/03/27 09:34:46;;;;;;;;;4.00;3.25;;;;;10.43;66.54;98171.59;5053576;28;46080;-56
2024/03/27 09:37:12;;;;;;;;;4.00;2.50;;;;;10.40;66.03;98172.63;5053757;28;45422;-57
2024/03/27 09:39:37;;;;;;;;;3.75;3.75;;;;;10.36;66.79;98173.78;5044759;28;45380;-55
2024/03/27 09:42:02;;;;;;;;;3.50;2.50;;;;;10.35;66.71;98177.31;5051969;28;72349;-51
2024/03/27 09:44:29;;;;;;;;;4.00;4.00;;;;;10.35;66.48;98166.84;5046783;28;68328;-54
2024/03/27 09:46:59;;;;;;;;;3.75;3.75;;;;;10.49;67.13;98163.31;5054235;28;45429;-51
2024/03/27 09:49:26;;;;;;;;;4.00;3.00;;;;;10.73;67.15;98167.78;5042726;28;45389;-54
2024/03/27 09:51:52;;;;;;;;;4.50;2.75;;;;;10.90;66.10;98169.25;5045094;28;46519;-53
2024/03/27 09:54:19;;;;;;;;;4.75;3.00;;;;;10.98;65.54;98159.94;5056564;28;45351;-53
2024/03/27 09:56:44;;;;;;;;;4.75;3.00;;;;;11.18;65.39;98162.91;5050308;28;45182;-54
2024/03/27 09:59:10;;;;;;;;;4.50;2.50;;;;;11.36;64.96;98168.63;5050006;28;45537;-55
2024/03/27 10:01:37;;;;;;;;;4.25;3.00;;;;;11.45;64.56;98169.75;5044394;28;45439;-57
2024/03/27 10:04:03;;;;;;;;;4.00;3.00;;;;;11.57;63.91;98176.72;5047836;28;45300;-56
2024/03/27 10:06:30;;;;;;;;;3.00;3.00;;;;;11.69;63.37;98164.53;5054559;28;45348;-56
2024/03/27 10:08:55;;;;;;;;;3.00;2.50;;;;;11.71;62.22;98165.25;5056751;28;45466;-56
2024/03/27 10:11:21;;;;;;;;;5.75;2.00;;;;;11.78;62.28;98166.47;5055515;28;45485;-56
2024/03/27 10:13:47;;;;;;;;;2.00;2.00;;;;;11.90;62.39;98164.75;5059173;28;45272;-54
2024/03/27 10:16:13;;;;;;;;;3.25;2.00;;;;;12.01;62.13;98164.81;5056753;28;45534;-54
2024/03/27 10:18:41;;;;;;;;;2.00;2.00;;;;;12.06;61.77;98170.53;5057634;28;50312;-55
2024/03/27 10:21:07;;;;;;;;;2.25;2.25;;;;;12.13;60.95;98163.91;5051555;28;63071;-55
2024/03/27 10:23:32;;;;;;;;;2.75;1.50;;;;;12.13;60.87;98165.69;5042344;28;45512;-55
2024/03/27 10:26:04;;;;;;;;;1.00;1.00;;;;;12.08;60.30;98160.78;5052474;28;45349;-56
2024/03/27 10:28:35;;;;;;;;;1.75;1.25;;;;;12.09;60.75;98174.72;5050818;28;45573;-54
2024/03/27 10:31:02;;;;;;;;;1.00;1.00;;;;;12.14;60.28;98170.78;5043571;28;46289;-54
2024/03/27 10:33:27;;;;;;;;;1.75;1.00;;;;;12.21;59.68;98176.41;5055196;28;45739;-55
2024/03/27 10:35:53;;;;;;;;;2.00;2.00;;;;;12.20;59.39;98180.00;5048468;28;45315;-56
2024/03/27 10:38:20;;;;;;;;;2.25;2.00;;;;;12.23;59.65;98179.75;5048634;28;45565;-55
2024/03/27 10:40:52;;;;;;;;;2.25;1.75;;;;;12.20;58.95;98176.53;5061917;28;46193;-55
2024/03/27 10:43:35;;;;;;;;;3.00;2.00;;;;;12.22;59.38;98179.91;5049368;28;45277;-56
2024/03/27 10:46:02;;;;;;;;;1.25;1.25;;;;;12.23;58.97;98179.75;5060487;28;45723;-55
2024/03/27 10:48:28;;;;;;;;;1.75;1.75;;;;;12.14;59.07;98189.16;5044342;28;45336;-55
2024/03/27 10:50:55;;;;;;;;;3.25;2.00;;;;;12.10;59.55;98184.25;5047836;28;45333;-52
2024/03/27 10:53:21;;;;;;;;;2.00;2.00;;;;;12.15;59.59;98182.13;5043293;28;68331;-57
2024/03/27 10:55:47;;;;;;;;;22.75;19.75;;;;;12.35;59.61;98184.09;5039898;28;67548;-51
2024/03/27 10:58:13;;;;;;;;;6.50;5.75;;;;;12.55;59.45;98173.88;5054045;28;45305;-50
2024/03/27 11:00:39;;;;;;;;;6.50;3.75;;;;;12.69;59.24;98178.88;5053376;28;47446;-53
2024/03/27 11:03:05;;;;;;;;;2.00;2.00;;;;;12.82;58.67;98170.94;5057058;28;73624;-51
2024/03/27 11:05:31;;;;;;;;;2.75;2.75;;;;;12.89;58.27;98173.88;5043326;28;57488;-52
2024/03/27 11:08:00;;;;;;;;;3.75;2.00;;;;;12.81;58.14;98161.38;5056766;28;46909;-55
2024/03/27 11:10:27;;;;;;;;;1.00;1.00;;;;;12.81;57.71;98164.00;5051942;28;45296;-53
2024/03/27 11:12:57;;;;;;;;;1.50;1.50;;;;;12.93;58.33;98156.97;5060428;28;45769;-51
2024/03/27 11:15:22;;;;;;;;;2.50;2.50;;;;;13.09;57.54;98151.34;5058357;28;45448;-55
2024/03/27 11:17:54;;;;;;;;;2.25;2.25;;;;;13.22;57.35;98146.78;5056023;28;45402;-50
2024/03/27 11:20:22;;;;;;;;;2.00;1.00;;;;;13.29;56.03;98137.44;5059187;28;47141;-53
2024/03/27 11:22:47;;;;;;;;;3.00;1.00;;;;;13.30;56.00;98139.13;5060417;28;45737;-52
2024/03/27 11:25:13;;;;;;;;;2.50;1.50;;;;;13.18;55.61;98126.97;5054823;28;45369;-54
2024/03/27 11:27:39;;;;;;;;;1.00;1.00;;;;;13.14;56.05;98124.72;5041810;28;45246;-50
2024/03/27 11:30:05;;;;;;;;;2.00;2.00;;;;;13.18;55.73;98120.91;5063793;27;75358;-54
2024/03/27 11:32:34;;;;;;;;;1.00;1.00;;;;;13.29;56.17;98123.50;5040896;28;45304;-52